sensor_id;sensor_type;location;lat;lon;timestamp;P1;durP1;ratioP1;P2;durP2;ratioP2
962;SDS011;469;48.770;9.176;2022-12-10T00:01:18;44.70;;;17.52;;
962;SDS011;469;48.770;9.176;2022-12-10T00:04:22;43.70;;;19.45;;
962;SDS011;469;48.770;9.176;2022-12-10T00:08:43;40.70;;;17.63;;
962;SDS011;469;48.770;9.176;2022-12-10T00:31:09;40.40;;;18.45;;
962;SDS011;469;48.770;9.176;2022-12-10T01:06:53;34.58;;;16.17;;
962;SDS011;469;48.770;9.176;2022-12-10T01:10:08;40.05;;;16.95;;
962;SDS011;469;48.770;9.176;2022-12-10T01:19:38;41.35;;;16.45;;
962;SDS011;469;48.770;9.176;2022-12-10T01:22:41;44.67;;;18.40;;
962;SDS011;469;48.770;9.176;2022-12-10T01:48:59;40.05;;;18.00;;
962;SDS011;469;48.770;9.176;2022-12-10T03:13:29;32.90;;;15.75;;
962;SDS011;469;48.770;9.176;2022-12-10T03:16:41;38.92;;;16.88;;
962;SDS011;469;48.770;9.176;2022-12-10T03:20:38;35.80;;;16.50;;
962;SDS011;469;48.770;9.176;2022-12-10T03:25:57;38.33;;;15.98;;
962;SDS011;469;48.770;9.176;2022-12-10T03:27:09;36.67;;;15.57;;
962;SDS011;469;48.770;9.176;2022-12-10T03:55:17;32.17;;;14.57;;
962;SDS011;469;48.770;9.176;2022-12-10T03:58:57;33.75;;;15.00;;
962;SDS011;469;48.770;9.176;2022-12-10T04:04:43;34.05;;;15.15;;
962;SDS011;469;48.770;9.176;2022-12-10T04:07:52;39.50;;;16.02;;
962;SDS011;469;48.770;9.176;2022-12-10T04:17:26;32.05;;;14.23;;
962;SDS011;469;48.770;9.176;2022-12-10T04:20:28;34.45;;;14.90;;
962;SDS011;469;48.770;9.176;2022-12-10T04:23:39;36.42;;;17.15;;
962;SDS011;469;48.770;9.176;2022-12-10T04:29:48;38.90;;;16.00;;
962;SDS011;469;48.770;9.176;2022-12-10T04:48:45;34.20;;;14.77;;
962;SDS011;469;48.770;9.176;2022-12-10T04:52:05;32.42;;;15.80;;
962;SDS011;469;48.770;9.176;2022-12-10T04:54:59;34.33;;;15.60;;
962;SDS011;469;48.770;9.176;2022-12-10T04:58:30;35.60;;;15.80;;
962;SDS011;469;48.770;9.176;2022-12-10T05:04:06;35.85;;;16.60;;
962;SDS011;469;48.770;9.176;2022-12-10T05:07:56;37.38;;;14.93;;
962;SDS011;469;48.770;9.176;2022-12-10T05:09:52;42.03;;;16.50;;
962;SDS011;469;48.770;9.176;2022-12-10T05:12:44;35.35;;;15.88;;
962;SDS011;469;48.770;9.176;2022-12-10T05:15:32;37.92;;;16.92;;
962;SDS011;469;48.770;9.176;2022-12-10T05:18:17;40.17;;;16.80;;
962;SDS011;469;48.770;9.176;2022-12-10T05:24:16;34.03;;;15.48;;
962;SDS011;469;48.770;9.176;2022-12-10T05:26:46;38.70;;;17.35;;
962;SDS011;469;48.770;9.176;2022-12-10T05:29:59;35.78;;;16.35;;
962;SDS011;469;48.770;9.176;2022-12-10T05:32:46;33.83;;;16.13;;
962;SDS011;469;48.770;9.176;2022-12-10T05:38:27;39.28;;;16.48;;
962;SDS011;469;48.770;9.176;2022-12-10T05:44:17;39.72;;;17.30;;
962;SDS011;469;48.770;9.176;2022-12-10T05:47:12;34.03;;;16.20;;
962;SDS011;469;48.770;9.176;2022-12-10T05:49:43;40.80;;;17.17;;
962;SDS011;469;48.770;9.176;2022-12-10T05:55:40;37.42;;;17.05;;
962;SDS011;469;48.770;9.176;2022-12-10T05:58:33;36.42;;;17.02;;
962;SDS011;469;48.770;9.176;2022-12-10T06:01:22;40.10;;;18.25;;
962;SDS011;469;48.770;9.176;2022-12-10T06:04:08;42.65;;;18.58;;
962;SDS011;469;48.770;9.176;2022-12-10T06:10:40;38.72;;;17.88;;
962;SDS011;469;48.770;9.176;2022-12-10T06:13:07;37.25;;;16.30;;
962;SDS011;469;48.770;9.176;2022-12-10T06:15:37;38.75;;;16.63;;
962;SDS011;469;48.770;9.176;2022-12-10T06:18:05;37.85;;;17.17;;
962;SDS011;469;48.770;9.176;2022-12-10T06:20:32;39.35;;;16.77;;
962;SDS011;469;48.770;9.176;2022-12-10T06:23:01;41.38;;;17.02;;
962;SDS011;469;48.770;9.176;2022-12-10T06:25:28;35.42;;;16.63;;
962;SDS011;469;48.770;9.176;2022-12-10T06:27:55;44.60;;;18.40;;
962;SDS011;469;48.770;9.176;2022-12-10T06:30:22;41.63;;;16.70;;
962;SDS011;469;48.770;9.176;2022-12-10T06:32:55;42.33;;;17.75;;
962;SDS011;469;48.770;9.176;2022-12-10T06:35:22;38.05;;;16.85;;
962;SDS011;469;48.770;9.176;2022-12-10T06:37:49;32.35;;;16.77;;
962;SDS011;469;48.770;9.176;2022-12-10T06:40:16;38.00;;;16.40;;
962;SDS011;469;48.770;9.176;2022-12-10T06:42:44;31.17;;;15.75;;
962;SDS011;469;48.770;9.176;2022-12-10T06:45:11;32.60;;;16.90;;
962;SDS011;469;48.770;9.176;2022-12-10T06:47:38;34.78;;;16.05;;
962;SDS011;469;48.770;9.176;2022-12-10T06:50:07;36.65;;;16.27;;
962;SDS011;469;48.770;9.176;2022-12-10T06:52:38;36.20;;;16.85;;
962;SDS011;469;48.770;9.176;2022-12-10T06:55:06;38.22;;;17.05;;
962;SDS011;469;48.770;9.176;2022-12-10T06:57:33;37.17;;;16.27;;
962;SDS011;469;48.770;9.176;2022-12-10T07:00:00;35.35;;;16.05;;
962;SDS011;469;48.770;9.176;2022-12-10T07:02:26;35.25;;;16.33;;
962;SDS011;469;48.770;9.176;2022-12-10T07:05:01;32.58;;;15.48;;
962;SDS011;469;48.770;9.176;2022-12-10T07:07:53;39.83;;;17.25;;
962;SDS011;469;48.770;9.176;2022-12-10T07:10:22;41.92;;;18.00;;
962;SDS011;469;48.770;9.176;2022-12-10T07:12:49;34.38;;;16.02;;
962;SDS011;469;48.770;9.176;2022-12-10T07:15:16;33.90;;;15.63;;
962;SDS011;469;48.770;9.176;2022-12-10T07:17:45;36.05;;;16.48;;
962;SDS011;469;48.770;9.176;2022-12-10T07:20:12;40.42;;;16.92;;
962;SDS011;469;48.770;9.176;2022-12-10T07:22:44;33.25;;;15.95;;
962;SDS011;469;48.770;9.176;2022-12-10T07:25:12;36.00;;;15.77;;
962;SDS011;469;48.770;9.176;2022-12-10T07:27:40;36.83;;;16.42;;
962;SDS011;469;48.770;9.176;2022-12-10T07:30:07;40.28;;;17.30;;
962;SDS011;469;48.770;9.176;2022-12-10T07:32:35;36.45;;;16.50;;
962;SDS011;469;48.770;9.176;2022-12-10T07:35:02;34.40;;;16.85;;
962;SDS011;469;48.770;9.176;2022-12-10T07:37:29;34.42;;;15.48;;
962;SDS011;469;48.770;9.176;2022-12-10T07:39:56;38.63;;;16.17;;
962;SDS011;469;48.770;9.176;2022-12-10T07:42:24;38.67;;;17.00;;
962;SDS011;469;48.770;9.176;2022-12-10T07:44:51;38.13;;;17.08;;
962;SDS011;469;48.770;9.176;2022-12-10T07:47:18;36.55;;;15.80;;
962;SDS011;469;48.770;9.176;2022-12-10T07:49:45;37.22;;;17.30;;
962;SDS011;469;48.770;9.176;2022-12-10T07:52:12;33.92;;;16.52;;
962;SDS011;469;48.770;9.176;2022-12-10T07:54:39;40.67;;;17.27;;
962;SDS011;469;48.770;9.176;2022-12-10T07:57:06;39.10;;;17.50;;
962;SDS011;469;48.770;9.176;2022-12-10T07:59:34;36.50;;;16.67;;
962;SDS011;469;48.770;9.176;2022-12-10T08:02:01;38.22;;;17.52;;
962;SDS011;469;48.770;9.176;2022-12-10T08:04:28;36.20;;;16.80;;
962;SDS011;469;48.770;9.176;2022-12-10T08:06:56;36.22;;;17.13;;
962;SDS011;469;48.770;9.176;2022-12-10T08:09:23;38.30;;;17.35;;
962;SDS011;469;48.770;9.176;2022-12-10T08:11:50;36.15;;;16.48;;
962;SDS011;469;48.770;9.176;2022-12-10T08:14:18;36.47;;;17.05;;
962;SDS011;469;48.770;9.176;2022-12-10T08:16:49;37.15;;;16.70;;
962;SDS011;469;48.770;9.176;2022-12-10T08:19:16;38.55;;;15.95;;
962;SDS011;469;48.770;9.176;2022-12-10T08:22:21;37.75;;;16.08;;
962;SDS011;469;48.770;9.176;2022-12-10T08:24:48;36.83;;;18.40;;
962;SDS011;469;48.770;9.176;2022-12-10T08:27:15;36.45;;;16.15;;
962;SDS011;469;48.770;9.176;2022-12-10T08:29:41;41.08;;;17.52;;
962;SDS011;469;48.770;9.176;2022-12-10T08:32:18;35.90;;;17.00;;
962;SDS011;469;48.770;9.176;2022-12-10T08:34:44;41.30;;;18.55;;
962;SDS011;469;48.770;9.176;2022-12-10T08:37:11;38.47;;;16.83;;
962;SDS011;469;48.770;9.176;2022-12-10T08:39:42;36.38;;;16.92;;
962;SDS011;469;48.770;9.176;2022-12-10T08:42:09;33.65;;;15.63;;
962;SDS011;469;48.770;9.176;2022-12-10T08:44:36;41.95;;;18.95;;
962;SDS011;469;48.770;9.176;2022-12-10T08:47:04;35.60;;;16.70;;
962;SDS011;469;48.770;9.176;2022-12-10T08:49:41;38.30;;;16.80;;
962;SDS011;469;48.770;9.176;2022-12-10T08:52:10;41.50;;;17.08;;
962;SDS011;469;48.770;9.176;2022-12-10T08:54:43;38.58;;;16.30;;
962;SDS011;469;48.770;9.176;2022-12-10T08:57:15;35.92;;;16.15;;
962;SDS011;469;48.770;9.176;2022-12-10T08:59:43;42.53;;;18.38;;
962;SDS011;469;48.770;9.176;2022-12-10T09:02:12;34.78;;;15.85;;
962;SDS011;469;48.770;9.176;2022-12-10T09:04:41;42.75;;;17.27;;
962;SDS011;469;48.770;9.176;2022-12-10T09:07:11;38.97;;;16.90;;
962;SDS011;469;48.770;9.176;2022-12-10T09:09:40;38.83;;;16.33;;
962;SDS011;469;48.770;9.176;2022-12-10T09:12:07;40.92;;;17.30;;
962;SDS011;469;48.770;9.176;2022-12-10T09:14:33;36.30;;;16.90;;
962;SDS011;469;48.770;9.176;2022-12-10T09:17:03;37.90;;;17.02;;
962;SDS011;469;48.770;9.176;2022-12-10T09:19:30;33.85;;;15.23;;
962;SDS011;469;48.770;9.176;2022-12-10T09:21:58;36.78;;;16.15;;
962;SDS011;469;48.770;9.176;2022-12-10T09:24:25;36.40;;;16.15;;
962;SDS011;469;48.770;9.176;2022-12-10T09:26:52;33.50;;;15.85;;
962;SDS011;469;48.770;9.176;2022-12-10T09:29:21;35.88;;;15.63;;
962;SDS011;469;48.770;9.176;2022-12-10T09:31:49;36.17;;;16.10;;
962;SDS011;469;48.770;9.176;2022-12-10T09:34:16;35.95;;;16.35;;
962;SDS011;469;48.770;9.176;2022-12-10T09:36:43;39.20;;;16.60;;
962;SDS011;469;48.770;9.176;2022-12-10T09:39:12;37.95;;;16.80;;
962;SDS011;469;48.770;9.176;2022-12-10T09:41:43;38.55;;;16.95;;
962;SDS011;469;48.770;9.176;2022-12-10T09:44:42;42.67;;;16.70;;
962;SDS011;469;48.770;9.176;2022-12-10T09:47:18;37.35;;;16.98;;
962;SDS011;469;48.770;9.176;2022-12-10T09:49:50;34.92;;;16.30;;
962;SDS011;469;48.770;9.176;2022-12-10T09:52:23;36.17;;;17.00;;
962;SDS011;469;48.770;9.176;2022-12-10T09:54:54;35.72;;;16.80;;
962;SDS011;469;48.770;9.176;2022-12-10T09:57:26;42.28;;;17.85;;
962;SDS011;469;48.770;9.176;2022-12-10T09:59:56;37.47;;;16.95;;
962;SDS011;469;48.770;9.176;2022-12-10T10:02:27;35.97;;;17.05;;
962;SDS011;469;48.770;9.176;2022-12-10T10:05:06;40.00;;;16.75;;
962;SDS011;469;48.770;9.176;2022-12-10T10:07:38;36.88;;;16.20;;
962;SDS011;469;48.770;9.176;2022-12-10T10:10:16;34.28;;;15.98;;
962;SDS011;469;48.770;9.176;2022-12-10T10:12:47;29.25;;;14.80;;
962;SDS011;469;48.770;9.176;2022-12-10T10:15:16;36.38;;;15.63;;
962;SDS011;469;48.770;9.176;2022-12-10T10:17:48;39.42;;;16.30;;
962;SDS011;469;48.770;9.176;2022-12-10T10:20:19;36.47;;;16.80;;
962;SDS011;469;48.770;9.176;2022-12-10T10:22:46;37.67;;;16.30;;
962;SDS011;469;48.770;9.176;2022-12-10T10:25:14;40.22;;;16.52;;
962;SDS011;469;48.770;9.176;2022-12-10T10:27:43;36.70;;;16.83;;
962;SDS011;469;48.770;9.176;2022-12-10T10:30:14;31.70;;;14.63;;
962;SDS011;469;48.770;9.176;2022-12-10T10:32:47;38.65;;;16.67;;
962;SDS011;469;48.770;9.176;2022-12-10T10:35:25;41.22;;;18.27;;
962;SDS011;469;48.770;9.176;2022-12-10T10:37:56;37.78;;;16.50;;
962;SDS011;469;48.770;9.176;2022-12-10T10:40:27;34.78;;;15.90;;
962;SDS011;469;48.770;9.176;2022-12-10T10:42:56;33.53;;;15.80;;
962;SDS011;469;48.770;9.176;2022-12-10T10:45:35;34.55;;;16.23;;
962;SDS011;469;48.770;9.176;2022-12-10T10:48:06;30.25;;;15.25;;
962;SDS011;469;48.770;9.176;2022-12-10T10:50:37;38.70;;;16.25;;
962;SDS011;469;48.770;9.176;2022-12-10T10:53:25;34.40;;;14.73;;
962;SDS011;469;48.770;9.176;2022-12-10T10:55:57;34.75;;;15.60;;
962;SDS011;469;48.770;9.176;2022-12-10T10:58:30;36.90;;;16.67;;
962;SDS011;469;48.770;9.176;2022-12-10T11:00:58;37.85;;;15.80;;
962;SDS011;469;48.770;9.176;2022-12-10T11:03:27;37.00;;;16.67;;
962;SDS011;469;48.770;9.176;2022-12-10T11:05:58;34.25;;;16.13;;
962;SDS011;469;48.770;9.176;2022-12-10T11:08:26;34.40;;;15.35;;
962;SDS011;469;48.770;9.176;2022-12-10T11:11:00;32.25;;;14.88;;
962;SDS011;469;48.770;9.176;2022-12-10T11:13:30;38.53;;;15.82;;
962;SDS011;469;48.770;9.176;2022-12-10T11:15:59;38.42;;;16.30;;
962;SDS011;469;48.770;9.176;2022-12-10T11:18:36;33.90;;;15.25;;
962;SDS011;469;48.770;9.176;2022-12-10T11:21:05;33.03;;;15.10;;
962;SDS011;469;48.770;9.176;2022-12-10T11:23:38;37.00;;;15.25;;
962;SDS011;469;48.770;9.176;2022-12-10T11:26:11;30.25;;;15.20;;
962;SDS011;469;48.770;9.176;2022-12-10T11:28:54;30.92;;;14.25;;
962;SDS011;469;48.770;9.176;2022-12-10T11:31:34;36.97;;;14.43;;
962;SDS011;469;48.770;9.176;2022-12-10T11:34:18;35.15;;;15.02;;
962;SDS011;469;48.770;9.176;2022-12-10T11:36:52;31.55;;;14.25;;
962;SDS011;469;48.770;9.176;2022-12-10T11:39:31;33.63;;;15.48;;
962;SDS011;469;48.770;9.176;2022-12-10T11:42:22;30.95;;;13.82;;
962;SDS011;469;48.770;9.176;2022-12-10T11:44:57;35.45;;;14.25;;
962;SDS011;469;48.770;9.176;2022-12-10T11:47:36;29.52;;;14.00;;
962;SDS011;469;48.770;9.176;2022-12-10T11:50:14;38.05;;;15.85;;
962;SDS011;469;48.770;9.176;2022-12-10T11:52:57;28.20;;;12.73;;
962;SDS011;469;48.770;9.176;2022-12-10T11:55:38;37.28;;;15.55;;
962;SDS011;469;48.770;9.176;2022-12-10T11:58:19;31.83;;;14.50;;
962;SDS011;469;48.770;9.176;2022-12-10T12:00:58;34.88;;;14.35;;
962;SDS011;469;48.770;9.176;2022-12-10T12:03:46;34.15;;;14.35;;
962;SDS011;469;48.770;9.176;2022-12-10T12:06:35;27.30;;;12.65;;
962;SDS011;469;48.770;9.176;2022-12-10T12:09:25;30.63;;;13.30;;
962;SDS011;469;48.770;9.176;2022-12-10T12:12:09;31.35;;;13.75;;
962;SDS011;469;48.770;9.176;2022-12-10T12:14:44;36.00;;;13.25;;
962;SDS011;469;48.770;9.176;2022-12-10T12:17:19;32.47;;;14.68;;
962;SDS011;469;48.770;9.176;2022-12-10T12:19:54;29.92;;;13.25;;
962;SDS011;469;48.770;9.176;2022-12-10T12:22:25;28.92;;;13.50;;
962;SDS011;469;48.770;9.176;2022-12-10T12:24:58;33.58;;;13.70;;
962;SDS011;469;48.770;9.176;2022-12-10T12:27:28;30.35;;;12.38;;
962;SDS011;469;48.770;9.176;2022-12-10T12:30:03;30.65;;;12.77;;
962;SDS011;469;48.770;9.176;2022-12-10T12:32:40;31.92;;;14.48;;
962;SDS011;469;48.770;9.176;2022-12-10T12:35:13;24.48;;;12.57;;
962;SDS011;469;48.770;9.176;2022-12-10T12:37:45;34.97;;;12.95;;
962;SDS011;469;48.770;9.176;2022-12-10T12:40:23;33.28;;;13.50;;
962;SDS011;469;48.770;9.176;2022-12-10T12:42:58;29.42;;;13.15;;
962;SDS011;469;48.770;9.176;2022-12-10T12:45:34;28.35;;;12.93;;
962;SDS011;469;48.770;9.176;2022-12-10T12:48:09;36.58;;;16.88;;
962;SDS011;469;48.770;9.176;2022-12-10T12:50:47;30.38;;;14.73;;
962;SDS011;469;48.770;9.176;2022-12-10T12:53:19;44.60;;;16.40;;
962;SDS011;469;48.770;9.176;2022-12-10T12:55:54;34.22;;;14.38;;
962;SDS011;469;48.770;9.176;2022-12-10T12:58:31;32.33;;;13.65;;
962;SDS011;469;48.770;9.176;2022-12-10T13:01:15;28.90;;;14.23;;
962;SDS011;469;48.770;9.176;2022-12-10T13:03:48;32.95;;;12.95;;
962;SDS011;469;48.770;9.176;2022-12-10T13:06:18;30.70;;;13.30;;
962;SDS011;469;48.770;9.176;2022-12-10T13:08:48;31.02;;;13.70;;
962;SDS011;469;48.770;9.176;2022-12-10T13:11:27;28.98;;;15.13;;
962;SDS011;469;48.770;9.176;2022-12-10T13:14:14;28.67;;;13.30;;
962;SDS011;469;48.770;9.176;2022-12-10T13:16:48;29.67;;;14.43;;
962;SDS011;469;48.770;9.176;2022-12-10T13:19:26;30.45;;;13.98;;
962;SDS011;469;48.770;9.176;2022-12-10T13:21:58;31.10;;;15.10;;
962;SDS011;469;48.770;9.176;2022-12-10T13:24:44;35.75;;;15.57;;
962;SDS011;469;48.770;9.176;2022-12-10T13:27:16;35.70;;;15.27;;
962;SDS011;469;48.770;9.176;2022-12-10T13:29:46;33.15;;;14.85;;
962;SDS011;469;48.770;9.176;2022-12-10T13:32:23;39.78;;;15.85;;
962;SDS011;469;48.770;9.176;2022-12-10T13:37:57;36.60;;;14.70;;
962;SDS011;469;48.770;9.176;2022-12-10T13:40:37;34.38;;;15.07;;
962;SDS011;469;48.770;9.176;2022-12-10T13:43:26;34.92;;;16.17;;
962;SDS011;469;48.770;9.176;2022-12-10T13:46:26;29.70;;;13.68;;
962;SDS011;469;48.770;9.176;2022-12-10T13:48:58;34.55;;;14.50;;
962;SDS011;469;48.770;9.176;2022-12-10T14:00:18;34.47;;;15.57;;
962;SDS011;469;48.770;9.176;2022-12-10T14:02:55;34.67;;;15.40;;
962;SDS011;469;48.770;9.176;2022-12-10T14:08:38;33.03;;;15.27;;
962;SDS011;469;48.770;9.176;2022-12-10T14:11:12;38.53;;;16.90;;
962;SDS011;469;48.770;9.176;2022-12-10T14:13:49;37.60;;;15.80;;
962;SDS011;469;48.770;9.176;2022-12-10T14:16:20;36.22;;;15.55;;
962;SDS011;469;48.770;9.176;2022-12-10T14:18:52;40.40;;;16.73;;
962;SDS011;469;48.770;9.176;2022-12-10T14:21:26;35.75;;;14.65;;
962;SDS011;469;48.770;9.176;2022-12-10T14:23:59;34.53;;;14.65;;
962;SDS011;469;48.770;9.176;2022-12-10T14:26:27;34.20;;;15.35;;
962;SDS011;469;48.770;9.176;2022-12-10T14:28:55;33.42;;;14.48;;
962;SDS011;469;48.770;9.176;2022-12-10T14:31:26;38.03;;;14.55;;
962;SDS011;469;48.770;9.176;2022-12-10T14:33:59;33.95;;;15.15;;
962;SDS011;469;48.770;9.176;2022-12-10T14:36:30;31.95;;;14.35;;
962;SDS011;469;48.770;9.176;2022-12-10T14:39:09;34.17;;;14.60;;
962;SDS011;469;48.770;9.176;2022-12-10T14:41:42;34.58;;;14.70;;
962;SDS011;469;48.770;9.176;2022-12-10T14:44:11;30.10;;;14.07;;
962;SDS011;469;48.770;9.176;2022-12-10T14:46:43;33.65;;;15.25;;
962;SDS011;469;48.770;9.176;2022-12-10T14:49:14;32.45;;;13.63;;
962;SDS011;469;48.770;9.176;2022-12-10T14:51:45;35.50;;;14.90;;
962;SDS011;469;48.770;9.176;2022-12-10T14:54:23;32.85;;;15.05;;
962;SDS011;469;48.770;9.176;2022-12-10T14:56:56;33.10;;;13.93;;
962;SDS011;469;48.770;9.176;2022-12-10T14:59:28;32.67;;;14.90;;
962;SDS011;469;48.770;9.176;2022-12-10T15:01:59;32.97;;;14.75;;
962;SDS011;469;48.770;9.176;2022-12-10T15:04:38;34.05;;;15.10;;
962;SDS011;469;48.770;9.176;2022-12-10T15:07:11;32.17;;;13.88;;
962;SDS011;469;48.770;9.176;2022-12-10T15:09:41;34.35;;;14.82;;
962;SDS011;469;48.770;9.176;2022-12-10T15:12:19;35.15;;;14.25;;
962;SDS011;469;48.770;9.176;2022-12-10T15:15:04;33.35;;;14.35;;
962;SDS011;469;48.770;9.176;2022-12-10T15:17:51;33.42;;;14.88;;
962;SDS011;469;48.770;9.176;2022-12-10T15:20:25;30.67;;;14.38;;
962;SDS011;469;48.770;9.176;2022-12-10T15:23:05;31.17;;;14.80;;
962;SDS011;469;48.770;9.176;2022-12-10T15:25:40;34.78;;;14.77;;
962;SDS011;469;48.770;9.176;2022-12-10T15:28:22;31.98;;;14.10;;
962;SDS011;469;48.770;9.176;2022-12-10T15:30:56;35.08;;;15.20;;
962;SDS011;469;48.770;9.176;2022-12-10T15:33:30;37.15;;;15.25;;
962;SDS011;469;48.770;9.176;2022-12-10T15:35:59;34.22;;;15.57;;
962;SDS011;469;48.770;9.176;2022-12-10T15:38:28;34.55;;;15.30;;
962;SDS011;469;48.770;9.176;2022-12-10T15:41:00;33.05;;;14.82;;
962;SDS011;469;48.770;9.176;2022-12-10T15:43:51;32.58;;;14.00;;
962;SDS011;469;48.770;9.176;2022-12-10T15:46:46;27.88;;;13.77;;
962;SDS011;469;48.770;9.176;2022-12-10T15:49:15;33.65;;;14.63;;
962;SDS011;469;48.770;9.176;2022-12-10T15:51:42;33.17;;;14.10;;
962;SDS011;469;48.770;9.176;2022-12-10T15:54:20;44.10;;;18.45;;
962;SDS011;469;48.770;9.176;2022-12-10T15:56:48;35.13;;;13.70;;
962;SDS011;469;48.770;9.176;2022-12-10T15:59:17;35.33;;;14.65;;
962;SDS011;469;48.770;9.176;2022-12-10T16:01:50;32.63;;;14.18;;
962;SDS011;469;48.770;9.176;2022-12-10T16:04:21;36.63;;;14.95;;
962;SDS011;469;48.770;9.176;2022-12-10T16:06:49;31.80;;;13.48;;
962;SDS011;469;48.770;9.176;2022-12-10T16:09:15;26.63;;;12.63;;
962;SDS011;469;48.770;9.176;2022-12-10T16:11:47;28.63;;;12.90;;
962;SDS011;469;48.770;9.176;2022-12-10T16:14:14;29.45;;;12.98;;
962;SDS011;469;48.770;9.176;2022-12-10T16:16:41;32.33;;;12.98;;
962;SDS011;469;48.770;9.176;2022-12-10T16:19:10;28.85;;;13.25;;
962;SDS011;469;48.770;9.176;2022-12-10T16:21:40;26.95;;;12.88;;
962;SDS011;469;48.770;9.176;2022-12-10T16:24:10;34.78;;;12.95;;
962;SDS011;469;48.770;9.176;2022-12-10T16:26:42;24.85;;;11.55;;
962;SDS011;469;48.770;9.176;2022-12-10T16:29:13;33.00;;;13.77;;
962;SDS011;469;48.770;9.176;2022-12-10T16:31:45;28.90;;;12.50;;
962;SDS011;469;48.770;9.176;2022-12-10T16:36:59;27.98;;;11.70;;
962;SDS011;469;48.770;9.176;2022-12-10T16:39:26;31.63;;;13.02;;
962;SDS011;469;48.770;9.176;2022-12-10T16:41:54;27.00;;;11.85;;
962;SDS011;469;48.770;9.176;2022-12-10T16:44:40;29.65;;;13.80;;
962;SDS011;469;48.770;9.176;2022-12-10T16:47:16;29.13;;;12.30;;
962;SDS011;469;48.770;9.176;2022-12-10T16:52:41;33.92;;;12.52;;
962;SDS011;469;48.770;9.176;2022-12-10T16:55:11;29.70;;;13.15;;
962;SDS011;469;48.770;9.176;2022-12-10T17:00:42;28.85;;;12.70;;
962;SDS011;469;48.770;9.176;2022-12-10T17:06:09;29.80;;;11.82;;
962;SDS011;469;48.770;9.176;2022-12-10T17:08:41;32.55;;;13.73;;
962;SDS011;469;48.770;9.176;2022-12-10T17:11:13;27.92;;;12.45;;
962;SDS011;469;48.770;9.176;2022-12-10T17:14:09;30.60;;;13.63;;
962;SDS011;469;48.770;9.176;2022-12-10T17:16:46;24.63;;;12.27;;
962;SDS011;469;48.770;9.176;2022-12-10T17:19:14;31.80;;;14.50;;
962;SDS011;469;48.770;9.176;2022-12-10T17:21:42;40.50;;;14.15;;
962;SDS011;469;48.770;9.176;2022-12-10T17:24:09;27.25;;;12.65;;
962;SDS011;469;48.770;9.176;2022-12-10T17:26:47;29.95;;;13.25;;
962;SDS011;469;48.770;9.176;2022-12-10T17:29:17;28.75;;;12.98;;
962;SDS011;469;48.770;9.176;2022-12-10T17:31:55;30.85;;;12.82;;
962;SDS011;469;48.770;9.176;2022-12-10T17:34:24;39.53;;;15.32;;
962;SDS011;469;48.770;9.176;2022-12-10T17:36:55;30.88;;;12.80;;
962;SDS011;469;48.770;9.176;2022-12-10T17:39:23;25.75;;;12.18;;
962;SDS011;469;48.770;9.176;2022-12-10T17:41:50;29.52;;;14.38;;
962;SDS011;469;48.770;9.176;2022-12-10T17:44:23;26.73;;;12.13;;
962;SDS011;469;48.770;9.176;2022-12-10T17:47:12;31.30;;;12.93;;
962;SDS011;469;48.770;9.176;2022-12-10T17:52:43;30.23;;;12.73;;
962;SDS011;469;48.770;9.176;2022-12-10T17:55:12;30.20;;;13.95;;
962;SDS011;469;48.770;9.176;2022-12-10T17:57:39;31.17;;;14.05;;
962;SDS011;469;48.770;9.176;2022-12-10T18:00:12;29.55;;;13.68;;
962;SDS011;469;48.770;9.176;2022-12-10T18:02:51;40.05;;;15.82;;
962;SDS011;469;48.770;9.176;2022-12-10T18:05:39;50.83;;;19.30;;
962;SDS011;469;48.770;9.176;2022-12-10T18:08:09;35.10;;;15.23;;
962;SDS011;469;48.770;9.176;2022-12-10T18:10:45;29.02;;;12.93;;
962;SDS011;469;48.770;9.176;2022-12-10T18:13:23;33.50;;;14.60;;
962;SDS011;469;48.770;9.176;2022-12-10T18:16:04;34.67;;;14.52;;
962;SDS011;469;48.770;9.176;2022-12-10T18:18:41;36.92;;;14.43;;
962;SDS011;469;48.770;9.176;2022-12-10T18:21:13;31.52;;;14.07;;
962;SDS011;469;48.770;9.176;2022-12-10T18:24:31;35.63;;;15.43;;
962;SDS011;469;48.770;9.176;2022-12-10T18:27:08;41.63;;;16.23;;
962;SDS011;469;48.770;9.176;2022-12-10T18:29:40;37.45;;;16.45;;
962;SDS011;469;48.770;9.176;2022-12-10T18:32:08;50.90;;;16.75;;
962;SDS011;469;48.770;9.176;2022-12-10T18:34:47;41.63;;;18.40;;
962;SDS011;469;48.770;9.176;2022-12-10T18:37:15;34.75;;;13.85;;
962;SDS011;469;48.770;9.176;2022-12-10T18:39:46;36.40;;;14.93;;
962;SDS011;469;48.770;9.176;2022-12-10T18:42:17;28.95;;;13.05;;
962;SDS011;469;48.770;9.176;2022-12-10T18:44:44;32.30;;;14.75;;
962;SDS011;469;48.770;9.176;2022-12-10T18:47:13;36.72;;;14.82;;
962;SDS011;469;48.770;9.176;2022-12-10T18:49:51;38.08;;;15.23;;
962;SDS011;469;48.770;9.176;2022-12-10T18:52:20;31.08;;;13.25;;
962;SDS011;469;48.770;9.176;2022-12-10T18:54:50;28.80;;;13.55;;
962;SDS011;469;48.770;9.176;2022-12-10T18:57:21;36.53;;;14.23;;
962;SDS011;469;48.770;9.176;2022-12-10T18:59:59;26.52;;;11.90;;
962;SDS011;469;48.770;9.176;2022-12-10T19:02:28;34.65;;;14.63;;
962;SDS011;469;48.770;9.176;2022-12-10T19:04:57;27.88;;;12.80;;
962;SDS011;469;48.770;9.176;2022-12-10T19:07:24;48.85;;;18.30;;
962;SDS011;469;48.770;9.176;2022-12-10T19:09:59;40.08;;;16.65;;
962;SDS011;469;48.770;9.176;2022-12-10T19:12:29;43.45;;;16.90;;
962;SDS011;469;48.770;9.176;2022-12-10T19:14:57;41.22;;;15.63;;
962;SDS011;469;48.770;9.176;2022-12-10T19:17:24;36.13;;;16.33;;
962;SDS011;469;48.770;9.176;2022-12-10T19:19:59;38.70;;;17.20;;
962;SDS011;469;48.770;9.176;2022-12-10T19:22:40;32.33;;;14.15;;
962;SDS011;469;48.770;9.176;2022-12-10T19:25:21;32.17;;;14.45;;
962;SDS011;469;48.770;9.176;2022-12-10T19:28:01;32.33;;;14.63;;
962;SDS011;469;48.770;9.176;2022-12-10T19:30:42;35.42;;;15.02;;
962;SDS011;469;48.770;9.176;2022-12-10T19:33:24;30.75;;;13.35;;
962;SDS011;469;48.770;9.176;2022-12-10T19:35:57;28.73;;;13.70;;
962;SDS011;469;48.770;9.176;2022-12-10T19:38:35;36.65;;;14.60;;
962;SDS011;469;48.770;9.176;2022-12-10T19:41:02;33.35;;;15.45;;
962;SDS011;469;48.770;9.176;2022-12-10T19:43:31;30.48;;;13.80;;
962;SDS011;469;48.770;9.176;2022-12-10T19:46:07;31.00;;;13.55;;
962;SDS011;469;48.770;9.176;2022-12-10T19:48:39;35.42;;;14.00;;
962;SDS011;469;48.770;9.176;2022-12-10T19:51:14;34.88;;;13.20;;
962;SDS011;469;48.770;9.176;2022-12-10T19:53:42;27.80;;;13.20;;
962;SDS011;469;48.770;9.176;2022-12-10T19:56:17;31.65;;;14.35;;
962;SDS011;469;48.770;9.176;2022-12-10T19:58:45;32.58;;;14.30;;
962;SDS011;469;48.770;9.176;2022-12-10T20:01:16;38.08;;;16.48;;
962;SDS011;469;48.770;9.176;2022-12-10T20:03:45;40.38;;;14.57;;
962;SDS011;469;48.770;9.176;2022-12-10T20:06:17;32.60;;;15.25;;
962;SDS011;469;48.770;9.176;2022-12-10T20:08:46;38.25;;;16.10;;
962;SDS011;469;48.770;9.176;2022-12-10T20:11:13;38.72;;;15.80;;
962;SDS011;469;48.770;9.176;2022-12-10T20:13:41;52.95;;;20.15;;
962;SDS011;469;48.770;9.176;2022-12-10T20:16:17;59.35;;;20.10;;
962;SDS011;469;48.770;9.176;2022-12-10T20:18:48;43.15;;;16.15;;
962;SDS011;469;48.770;9.176;2022-12-10T20:21:18;34.25;;;14.88;;
962;SDS011;469;48.770;9.176;2022-12-10T20:23:45;36.65;;;15.15;;
962;SDS011;469;48.770;9.176;2022-12-10T20:26:15;29.52;;;13.52;;
962;SDS011;469;48.770;9.176;2022-12-10T20:28:43;36.28;;;14.98;;
962;SDS011;469;48.770;9.176;2022-12-10T20:31:14;30.25;;;13.75;;
962;SDS011;469;48.770;9.176;2022-12-10T20:33:46;33.22;;;14.38;;
962;SDS011;469;48.770;9.176;2022-12-10T20:36:19;31.48;;;13.20;;